(°C)
-1°
-2°
(°C)
-4°
-4°
-4°
-4°
-5°
-6°
-6°
ჩრ.
ჩრ.
ჩრ.
ჩრ.
ჩრ.
ჩრ.
ჩრ.
(კმ/სთ)
14-26
13-23
12-22
11-20
10-19
11-20
10-22
(მმ)
0
0
0
0
0
0
0
(%)
0
0
0
0
0
0
0

მზის სიმაღლე

/ 13.9°
sun-icon
UV 0
07:30
16:33
კლებადი მთვარე (212°)
16:38
11:22

METAR 64.6°ჩრ. 40.72°აღმ. (ULAA)-თვის

დრო პირობები ტემპერატურა/
ნამი
ქარი ხილვადობა ამინდი ღრუბლები წნევა ცვლილება დაუმუშავებელი
VFR 1°C / -2°C 360º variable 330º to 030º 6kt >10km - Scattered Clouds 3000ft 997 No Significant change. Runway 08: Wet snow, 26-50% contamination with 3mm, friction coefficient 0.46. ULAA 230900Z 36003MPS 330V030 9999 SCT030 01/M02 Q0997 R08/550346 NOSIG RMK QFE747/0996
VFR 1°C / -2°C 10º variable 320º to 060º 6kt >10km - Scattered Clouds 3000ft 996 No Significant change. Runway 08: Wet snow, 51-100% contamination with 3mm, friction coefficient 0.42. ULAA 230830Z 01003MPS 320V060 9999 SCT030 01/M02 Q0996 R08/590342 NOSIG RMK QFE746/0995
VFR 0°C / -3°C 10º variable 330º to 060º 6kt >10km - Scattered Clouds 2000ft 995 No Significant change. Runway 08: Wet snow, 51-100% contamination with 3mm, friction coefficient 0.42. ULAA 230800Z 01003MPS 330V060 9999 SCT020 M00/M03 Q0995 R08/590342 NOSIG RMK QFE746/0994
VFR -1°C / -3°C 10º variable 340º to 040º 6kt >10km - Scattered Clouds 2000ft 995 No Significant change. Runway 08: Wet snow, 51-100% contamination with 3mm, friction coefficient 0.42. ULAA 230730Z 01003MPS 340V040 9999 SCT020 M01/M03 Q0995 R08/590342 NOSIG RMK QFE745/0994
VFR -1°C / -3°C 360º variable 320º to 030º 6kt >10km - Scattered Clouds 2000ft 994 No Significant change. Runway 08: Wet snow, 51-100% contamination with 3mm, friction coefficient 0.42. ULAA 230700Z 36003MPS 320V030 9999 SCT020 M01/M03 Q0994 R08/590342 NOSIG RMK QFE745/0993
VFR -2°C / -3°C 10º variable 340º to 040º 6kt >10km - Scattered Clouds 2000ft 993 No Significant change. Runway 08: Wet snow, 51-100% contamination with 3mm, friction coefficient 0.42. ULAA 230630Z 01003MPS 340V040 9999 SCT020 M02/M03 Q0993 R08/590342 NOSIG RMK QFE744/0992
VFR -2°C / -3°C 10º variable 330º to 050º 6kt >10km - Scattered Clouds 2000ft 993 No Significant change. Runway 08: Wet snow, 51-100% contamination with 3mm, friction coefficient 0.39. ULAA 230600Z 01003MPS 330V050 9999 SCT020 M02/M03 Q0993 R08/590339 NOSIG RMK QFE744/0992
VFR -2°C / -3°C 360º variable 340º to 040º 4kt >10km - Scattered Clouds 2000ft 992 No Significant change. Runway 08: Wet snow, 51-100% contamination with 3mm, friction coefficient 0.39. ULAA 230530Z 36002MPS 340V040 9999 SCT020 M02/M03 Q0992 R08/590339 NOSIG RMK QFE743/0991
VFR -2°C / -3°C 10º 4kt >10km - Scattered Clouds 2000ft 991 No Significant change. Runway 08: Wet snow, 51-100% contamination with 3mm, friction coefficient 0.39. ULAA 230500Z 01002MPS 9999 SCT020 M02/M03 Q0991 R08/590339 NOSIG RMK QFE743/0990
VFR -2°C / -3°C 10º variable 340º to 060º 4kt 9000m - Scattered Clouds 2000ft 991 No Significant change. Runway 08: Wet snow, 51-100% contamination with 3mm, friction coefficient 0.39. ULAA 230430Z 01002MPS 340V060 9000 SCT020 M02/M03 Q0991 R08/590339 NOSIG RMK QFE742/0990
VFR -1°C / -2°C 10º variable 340º to 040º 4kt >10km - Scattered Clouds 2000ft 990 No Significant change. Runway 08: Wet snow, 51-100% contamination with 3mm, friction coefficient 0.39. ULAA 230400Z 01002MPS 340V040 9999 SCT020CB M01/M02 Q0990 R08/590339 NOSIG RMK QFE742/0989
MVFR -1°C / -2°C 20º variable 340º to 050º 4kt >10km - Broken Clouds 2000ft 989 No Significant change. Runway 08: Wet snow, 51-100% contamination with 3mm, friction coefficient 0.39. ULAA 230330Z 02002MPS 340V050 9999 BKN020CB M01/M02 Q0989 R08/590339 NOSIG RMK QFE741/0988
MVFR -1°C / -2°C 20º 4kt >10km - Broken Clouds 2000ft 989 No Significant change. Runway 08: Wet snow, 51-100% contamination with 3mm, friction coefficient 0.43. ULAA 230300Z 02002MPS 9999 BKN020CB M01/M02 Q0989 R08/590343 NOSIG RMK QFE741/0988
MVFR -1°C / -2°C 20º 4kt >10km Light Showers Snow 3.00mm precipitation Vertical Visibility of 0ft. 988 No Significant change. Runway 08: Wet snow, 51-100% contamination with 3mm, friction coefficient 0.43. ULAA 230230Z 02002MPS 9999 -SHSN BKN022CB M01/M02 Q0988 R08/590343 NOSIG RMK QFE740/0987
MVFR -1°C / -2°C 30º variable 360º to 070º 4kt 6000m Light Showers Snow 3.00mm precipitation Vertical Visibility of 0ft. 988 No Significant change. Runway 08: Wet snow, 51-100% contamination with 3mm, friction coefficient 0.43. ULAA 230200Z 03002MPS 360V070 6000 -SHSN OVC020CB M01/M02 Q0988 R08/590343 NOSIG RMK QFE740/0987
MVFR -1°C / -2°C 40º variable 010º to 080º 6kt 4900m Light Showers Snow 3.00mm precipitation Vertical Visibility of 0ft. 987 No Significant change. Runway 08: Wet snow, 51-100% contamination with 3mm, friction coefficient 0.43. ULAA 230130Z 04003MPS 010V080 4900 -SHSN OVC013CB M01/M02 Q0987 R08/590343 NOSIG RMK QFE739/0986
IFR -1°C / -2°C 50º variable 020º to 090º 8kt 4400m Light Showers Snow 3.00mm precipitation Vertical Visibility of 0ft. 987 No Significant change. Runway 08: Wet snow, 51-100% contamination with 3mm, friction coefficient 0.43. ULAA 230100Z 05004MPS 020V090 4400 -SHSN OVC013CB M01/M02 Q0987 R08/590343 NOSIG RMK QFE739/0986
MVFR -1°C / -2°C 50º 10kt 5000m Light Showers Snow 3.00mm precipitation Vertical Visibility of 0ft. 986 No Significant change. Runway 08: Wet snow, 51-100% contamination with 3mm, friction coefficient 0.43. ULAA 230030Z 05005MPS 5000 -SHSN OVC013CB M01/M02 Q0986 R08/590343 NOSIG RMK QFE739/0985
IFR -1°C / -2°C 50º variable 020º to 090º 8kt 5000m Light Showers Snow 3.00mm precipitation Vertical Visibility of 0ft. 985 No Significant change. Runway 08: Wet snow, 51-100% contamination with 3mm, friction coefficient 0.43. ULAA 230000Z 05004MPS 020V090 5000 -SHSN OVC008CB M01/M02 Q0985 R08/590343 NOSIG RMK QFE738/0984
IFR -1°C / -2°C 50º variable 020º to 080º 8kt 4000m Light Showers Snow 3.00mm precipitation Vertical Visibility of 0ft. 985 No Significant change. Runway 08: Wet snow, 51-100% contamination with 3mm, friction coefficient 0.43. ULAA 222330Z 05004MPS 020V080 4000 -SHSN OVC007CB M01/M02 Q0985 R08/590343 NOSIG RMK QFE738/0984
LIFR -1°C / -2°C 50º variable 010º to 090º 8kt 1100m. Runway 08: Visual range is 1900m and decreasing. Showers Snow 3.00mm precipitation Vertical Visibility of 0ft. 984 No Significant change. Runway 08: Wet snow, 51-100% contamination with 3mm, friction coefficient 0.43. ULAA 222300Z 05004MPS 010V090 1100 R08/1900D SHSN OVC004CB M01/M02 Q0984 R08/590343 NOSIG RMK QBB120 QFE737/0983
IFR -1°C / -2°C 50º 8kt >10km Light Showers Snow 3.00mm precipitation Vertical Visibility of 0ft. 984 No Significant change. Runway 08: Wet snow, 51-100% contamination with 3mm, friction coefficient 0.43. ULAA 222230Z 05004MPS 9999 -SHSN OVC008CB M01/M02 Q0984 R08/590343 NOSIG RMK QFE737/0983
IFR -1°C / -1°C 60º variable 020º to 090º 8kt 9000m Light Showers Snow 3.00mm precipitation Vertical Visibility of 0ft. 983 No Significant change. Runway 08: Wet snow, 51-100% contamination with 3mm, friction coefficient 0.36. ULAA 222200Z 06004MPS 020V090 9000 -SHSN OVC009CB M01/M01 Q0983 R08/590336 NOSIG RMK QFE737/0982
IFR -1°C / -1°C 60º variable 030º to 090º 8kt 6000m Light Showers Snow 3.00mm precipitation Vertical Visibility of 0ft. 983 No Significant change. Runway 08: Wet snow, 51-100% contamination with 3mm, friction coefficient 0.36. ULAA 222130Z 06004MPS 030V090 6000 -SHSN OVC008CB M01/M01 Q0983 R08/590336 NOSIG RMK QFE736/0982

VFR

1°C / -2°C

[მეტი]
ქარი 360º variable 330º to 030º 6kt
ხილვადობა >10km
ამინდი -
ღრუბლები Scattered Clouds 3000ft
წნევა 997
ცვლილება No Significant change. Runway 08: Wet snow, 26-50% contamination with 3mm, friction coefficient 0.46.
დაუმუშავებელი ULAA 230900Z 36003MPS 330V030 9999 SCT030 01/M02 Q0997 R08/550346 NOSIG RMK QFE747/0996

VFR

1°C / -2°C

[მეტი]
ქარი 10º variable 320º to 060º 6kt
ხილვადობა >10km
ამინდი -
ღრუბლები Scattered Clouds 3000ft
წნევა 996
ცვლილება No Significant change. Runway 08: Wet snow, 51-100% contamination with 3mm, friction coefficient 0.42.
დაუმუშავებელი ULAA 230830Z 01003MPS 320V060 9999 SCT030 01/M02 Q0996 R08/590342 NOSIG RMK QFE746/0995

VFR

0°C / -3°C

[მეტი]
ქარი 10º variable 330º to 060º 6kt
ხილვადობა >10km
ამინდი -
ღრუბლები Scattered Clouds 2000ft
წნევა 995
ცვლილება No Significant change. Runway 08: Wet snow, 51-100% contamination with 3mm, friction coefficient 0.42.
დაუმუშავებელი ULAA 230800Z 01003MPS 330V060 9999 SCT020 M00/M03 Q0995 R08/590342 NOSIG RMK QFE746/0994

VFR

-1°C / -3°C

[მეტი]
ქარი 10º variable 340º to 040º 6kt
ხილვადობა >10km
ამინდი -
ღრუბლები Scattered Clouds 2000ft
წნევა 995
ცვლილება No Significant change. Runway 08: Wet snow, 51-100% contamination with 3mm, friction coefficient 0.42.
დაუმუშავებელი ULAA 230730Z 01003MPS 340V040 9999 SCT020 M01/M03 Q0995 R08/590342 NOSIG RMK QFE745/0994

VFR

-1°C / -3°C

[მეტი]
ქარი 360º variable 320º to 030º 6kt
ხილვადობა >10km
ამინდი -
ღრუბლები Scattered Clouds 2000ft
წნევა 994
ცვლილება No Significant change. Runway 08: Wet snow, 51-100% contamination with 3mm, friction coefficient 0.42.
დაუმუშავებელი ULAA 230700Z 36003MPS 320V030 9999 SCT020 M01/M03 Q0994 R08/590342 NOSIG RMK QFE745/0993

VFR

-2°C / -3°C

[მეტი]
ქარი 10º variable 340º to 040º 6kt
ხილვადობა >10km
ამინდი -
ღრუბლები Scattered Clouds 2000ft
წნევა 993
ცვლილება No Significant change. Runway 08: Wet snow, 51-100% contamination with 3mm, friction coefficient 0.42.
დაუმუშავებელი ULAA 230630Z 01003MPS 340V040 9999 SCT020 M02/M03 Q0993 R08/590342 NOSIG RMK QFE744/0992

VFR

-2°C / -3°C

[მეტი]
ქარი 10º variable 330º to 050º 6kt
ხილვადობა >10km
ამინდი -
ღრუბლები Scattered Clouds 2000ft
წნევა 993
ცვლილება No Significant change. Runway 08: Wet snow, 51-100% contamination with 3mm, friction coefficient 0.39.
დაუმუშავებელი ULAA 230600Z 01003MPS 330V050 9999 SCT020 M02/M03 Q0993 R08/590339 NOSIG RMK QFE744/0992

VFR

-2°C / -3°C

[მეტი]
ქარი 360º variable 340º to 040º 4kt
ხილვადობა >10km
ამინდი -
ღრუბლები Scattered Clouds 2000ft
წნევა 992
ცვლილება No Significant change. Runway 08: Wet snow, 51-100% contamination with 3mm, friction coefficient 0.39.
დაუმუშავებელი ULAA 230530Z 36002MPS 340V040 9999 SCT020 M02/M03 Q0992 R08/590339 NOSIG RMK QFE743/0991

VFR

-2°C / -3°C

[მეტი]
ქარი 10º 4kt
ხილვადობა >10km
ამინდი -
ღრუბლები Scattered Clouds 2000ft
წნევა 991
ცვლილება No Significant change. Runway 08: Wet snow, 51-100% contamination with 3mm, friction coefficient 0.39.
დაუმუშავებელი ULAA 230500Z 01002MPS 9999 SCT020 M02/M03 Q0991 R08/590339 NOSIG RMK QFE743/0990

VFR

-2°C / -3°C

[მეტი]
ქარი 10º variable 340º to 060º 4kt
ხილვადობა 9000m
ამინდი -
ღრუბლები Scattered Clouds 2000ft
წნევა 991
ცვლილება No Significant change. Runway 08: Wet snow, 51-100% contamination with 3mm, friction coefficient 0.39.
დაუმუშავებელი ULAA 230430Z 01002MPS 340V060 9000 SCT020 M02/M03 Q0991 R08/590339 NOSIG RMK QFE742/0990

VFR

-1°C / -2°C

[მეტი]
ქარი 10º variable 340º to 040º 4kt
ხილვადობა >10km
ამინდი -
ღრუბლები Scattered Clouds 2000ft
წნევა 990
ცვლილება No Significant change. Runway 08: Wet snow, 51-100% contamination with 3mm, friction coefficient 0.39.
დაუმუშავებელი ULAA 230400Z 01002MPS 340V040 9999 SCT020CB M01/M02 Q0990 R08/590339 NOSIG RMK QFE742/0989

MVFR

-1°C / -2°C

[მეტი]
ქარი 20º variable 340º to 050º 4kt
ხილვადობა >10km
ამინდი -
ღრუბლები Broken Clouds 2000ft
წნევა 989
ცვლილება No Significant change. Runway 08: Wet snow, 51-100% contamination with 3mm, friction coefficient 0.39.
დაუმუშავებელი ULAA 230330Z 02002MPS 340V050 9999 BKN020CB M01/M02 Q0989 R08/590339 NOSIG RMK QFE741/0988

MVFR

-1°C / -2°C

[მეტი]
ქარი 20º 4kt
ხილვადობა >10km
ამინდი -
ღრუბლები Broken Clouds 2000ft
წნევა 989
ცვლილება No Significant change. Runway 08: Wet snow, 51-100% contamination with 3mm, friction coefficient 0.43.
დაუმუშავებელი ULAA 230300Z 02002MPS 9999 BKN020CB M01/M02 Q0989 R08/590343 NOSIG RMK QFE741/0988

MVFR

-1°C / -2°C

[მეტი]
ქარი 20º 4kt
ხილვადობა >10km
ამინდი Light Showers Snow 3.00mm precipitation
ღრუბლები Vertical Visibility of 0ft.
წნევა 988
ცვლილება No Significant change. Runway 08: Wet snow, 51-100% contamination with 3mm, friction coefficient 0.43.
დაუმუშავებელი ULAA 230230Z 02002MPS 9999 -SHSN BKN022CB M01/M02 Q0988 R08/590343 NOSIG RMK QFE740/0987

MVFR

-1°C / -2°C

[მეტი]
ქარი 30º variable 360º to 070º 4kt
ხილვადობა 6000m
ამინდი Light Showers Snow 3.00mm precipitation
ღრუბლები Vertical Visibility of 0ft.
წნევა 988
ცვლილება No Significant change. Runway 08: Wet snow, 51-100% contamination with 3mm, friction coefficient 0.43.
დაუმუშავებელი ULAA 230200Z 03002MPS 360V070 6000 -SHSN OVC020CB M01/M02 Q0988 R08/590343 NOSIG RMK QFE740/0987

MVFR

-1°C / -2°C

[მეტი]
ქარი 40º variable 010º to 080º 6kt
ხილვადობა 4900m
ამინდი Light Showers Snow 3.00mm precipitation
ღრუბლები Vertical Visibility of 0ft.
წნევა 987
ცვლილება No Significant change. Runway 08: Wet snow, 51-100% contamination with 3mm, friction coefficient 0.43.
დაუმუშავებელი ULAA 230130Z 04003MPS 010V080 4900 -SHSN OVC013CB M01/M02 Q0987 R08/590343 NOSIG RMK QFE739/0986

IFR

-1°C / -2°C

[მეტი]
ქარი 50º variable 020º to 090º 8kt
ხილვადობა 4400m
ამინდი Light Showers Snow 3.00mm precipitation
ღრუბლები Vertical Visibility of 0ft.
წნევა 987
ცვლილება No Significant change. Runway 08: Wet snow, 51-100% contamination with 3mm, friction coefficient 0.43.
დაუმუშავებელი ULAA 230100Z 05004MPS 020V090 4400 -SHSN OVC013CB M01/M02 Q0987 R08/590343 NOSIG RMK QFE739/0986

MVFR

-1°C / -2°C

[მეტი]
ქარი 50º 10kt
ხილვადობა 5000m
ამინდი Light Showers Snow 3.00mm precipitation
ღრუბლები Vertical Visibility of 0ft.
წნევა 986
ცვლილება No Significant change. Runway 08: Wet snow, 51-100% contamination with 3mm, friction coefficient 0.43.
დაუმუშავებელი ULAA 230030Z 05005MPS 5000 -SHSN OVC013CB M01/M02 Q0986 R08/590343 NOSIG RMK QFE739/0985

IFR

-1°C / -2°C

[მეტი]
ქარი 50º variable 020º to 090º 8kt
ხილვადობა 5000m
ამინდი Light Showers Snow 3.00mm precipitation
ღრუბლები Vertical Visibility of 0ft.
წნევა 985
ცვლილება No Significant change. Runway 08: Wet snow, 51-100% contamination with 3mm, friction coefficient 0.43.
დაუმუშავებელი ULAA 230000Z 05004MPS 020V090 5000 -SHSN OVC008CB M01/M02 Q0985 R08/590343 NOSIG RMK QFE738/0984

IFR

-1°C / -2°C

[მეტი]
ქარი 50º variable 020º to 080º 8kt
ხილვადობა 4000m
ამინდი Light Showers Snow 3.00mm precipitation
ღრუბლები Vertical Visibility of 0ft.
წნევა 985
ცვლილება No Significant change. Runway 08: Wet snow, 51-100% contamination with 3mm, friction coefficient 0.43.
დაუმუშავებელი ULAA 222330Z 05004MPS 020V080 4000 -SHSN OVC007CB M01/M02 Q0985 R08/590343 NOSIG RMK QFE738/0984

LIFR

-1°C / -2°C

[მეტი]
ქარი 50º variable 010º to 090º 8kt
ხილვადობა 1100m. Runway 08: Visual range is 1900m and decreasing.
ამინდი Showers Snow 3.00mm precipitation
ღრუბლები Vertical Visibility of 0ft.
წნევა 984
ცვლილება No Significant change. Runway 08: Wet snow, 51-100% contamination with 3mm, friction coefficient 0.43.
დაუმუშავებელი ULAA 222300Z 05004MPS 010V090 1100 R08/1900D SHSN OVC004CB M01/M02 Q0984 R08/590343 NOSIG RMK QBB120 QFE737/0983

IFR

-1°C / -2°C

[მეტი]
ქარი 50º 8kt
ხილვადობა >10km
ამინდი Light Showers Snow 3.00mm precipitation
ღრუბლები Vertical Visibility of 0ft.
წნევა 984
ცვლილება No Significant change. Runway 08: Wet snow, 51-100% contamination with 3mm, friction coefficient 0.43.
დაუმუშავებელი ULAA 222230Z 05004MPS 9999 -SHSN OVC008CB M01/M02 Q0984 R08/590343 NOSIG RMK QFE737/0983

IFR

-1°C / -1°C

[მეტი]
ქარი 60º variable 020º to 090º 8kt
ხილვადობა 9000m
ამინდი Light Showers Snow 3.00mm precipitation
ღრუბლები Vertical Visibility of 0ft.
წნევა 983
ცვლილება No Significant change. Runway 08: Wet snow, 51-100% contamination with 3mm, friction coefficient 0.36.
დაუმუშავებელი ULAA 222200Z 06004MPS 020V090 9000 -SHSN OVC009CB M01/M01 Q0983 R08/590336 NOSIG RMK QFE737/0982

IFR

-1°C / -1°C

[მეტი]
ქარი 60º variable 030º to 090º 8kt
ხილვადობა 6000m
ამინდი Light Showers Snow 3.00mm precipitation
ღრუბლები Vertical Visibility of 0ft.
წნევა 983
ცვლილება No Significant change. Runway 08: Wet snow, 51-100% contamination with 3mm, friction coefficient 0.36.
დაუმუშავებელი ULAA 222130Z 06004MPS 030V090 6000 -SHSN OVC008CB M01/M01 Q0983 R08/590336 NOSIG RMK QFE736/0982

TAF 64.6°ჩრ. 40.72°აღმ. (ULAA)-თვის

From till


From till Wind 10º 6kt. Gust 16kt. Visibility 10km or more. Broken Clouds 1700ft.
Temporarly from till Wind 330º 8kt. Gust 23kt. Visibility 6000m. Light Showers Snow . Few Clouds 700ft. Broken Clouds 1600ft.

დაუმუშავებელი: TAF ULAA 230800Z 2309/2409 01003G08MPS 9999 BKN017 TEMPO 2309/2409 33004G12MPS 6000 -SHSN FEW007 BKN016CB

მიმდინარე სატელიტისა და წვიმის სურათები 64.6°ჩრ. 40.72°აღმ.-თვის

ლოკაციის მარკერი დაყენებყლია 64.6°ჩრ. 40.72°აღმ.ზე. [მეტი]

რეალურ დროში სატელიტური სურათი აერთიანებს ხილულ სინათლეს დღისით ღამის განმავლობაში ინფრაწითელ გამოსხივებასთან ერთად. ღამით, სურათი არ არის მუქი, რადგან ინფრაწითელ გამოსხივებას შეუძლია ტემპერატურის განსხვავებების დადგენა. სამწუხაროდ, დაბალი ღრუბლები და ნისლი ძნელია განასხვავონ მიწის ტემპერატურისგან და, შესაბამისად, ისინი შეიძლება თითქმის არ ჩანდეს ღამით. Meteosat სატელიტური გამოსახულება ევროპისთვის ახლდება რეალურ დროში ყოველ 5 წუთში. GOES-16/GOES-17 (ჩრდილოეთი და სამხრეთ ამერიკა) და ჰიმავარი (აზია) გამოსახულებები ახლდება ყოველ 10 წუთში.

საავტორო უფლებები 2021 EUMETSAT / meteoblue. / საავტორო უფლებები 2021 meteoblue

რადარის და ნალექების მაჩვენებელი 64.6°ჩრ. 40.72°აღმ. -თვის

გაწურეთ
Მსუბუქი
ზომიერი
Მძიმე
Ძალიან მძიმე
სეტყვა

მდებარეობის მარკერი მოთავსებულია 64.6°ჩრ. 40.72°აღმ. -ზე. ეს ანიმაცია აჩვენებს ნალექების სარადარო მონაცემებს როგორც ბოლო საათის განმავლობაში, ასევე 1h პროგნოზს. წვიმა ან თოვლის მსუბუქი ვარდნა შეიძლება უჩინარი იყოს რადარისთვის. ნალექების ინტენსივობა არის კოდირებული ფერით, დაწყებული ღია ლურჯიდან ნარინჯისფერამდე.